createdAt,value
2019-05-09T00:00:54.834Z,0.00
2019-05-09T00:01:54.794Z,0.00
2019-05-09T00:02:54.821Z,0.00
2019-05-09T00:03:54.759Z,0.00
2019-05-09T00:04:54.783Z,0.00
2019-05-09T00:05:54.856Z,0.00
2019-05-09T00:06:54.748Z,0.00
2019-05-09T00:07:54.712Z,0.00
2019-05-09T00:08:54.701Z,0.00
2019-05-09T00:09:54.683Z,0.00
2019-05-09T00:10:54.700Z,0.00
2019-05-09T00:11:54.677Z,0.00
2019-05-09T00:12:54.649Z,0.00
2019-05-09T00:13:54.637Z,0.00
2019-05-09T00:14:54.626Z,0.00
2019-05-09T00:15:54.620Z,0.00
2019-05-09T00:16:54.620Z,0.00
2019-05-09T00:17:54.602Z,0.00
2019-05-09T00:18:54.586Z,0.00
2019-05-09T00:19:54.586Z,0.00
2019-05-09T00:20:54.562Z,0.00
2019-05-09T00:21:54.575Z,0.00
2019-05-09T00:22:54.546Z,0.00
2019-05-09T00:23:54.533Z,0.00
2019-05-09T00:24:54.526Z,0.00
2019-05-09T00:25:54.516Z,0.00
2019-05-09T00:26:54.529Z,0.00
2019-05-09T00:27:54.487Z,0.00
2019-05-09T00:28:54.485Z,0.00
2019-05-09T00:29:54.469Z,0.00
2019-05-09T00:30:54.456Z,0.00
2019-05-09T00:31:54.521Z,0.00
2019-05-09T00:32:54.483Z,0.00
2019-05-09T00:33:54.441Z,0.00
2019-05-09T00:34:54.414Z,0.00
2019-05-09T00:35:54.422Z,0.00
2019-05-09T00:36:54.423Z,0.00
2019-05-09T00:37:54.427Z,0.00
2019-05-09T00:38:54.406Z,0.00
2019-05-09T00:39:54.363Z,0.00
2019-05-09T00:40:58.572Z,0.00
2019-05-09T00:41:54.371Z,0.00
2019-05-09T00:42:54.331Z,0.00
2019-05-09T00:43:54.448Z,0.00
2019-05-09T00:44:54.306Z,0.00
2019-05-09T00:45:54.312Z,0.00
2019-05-09T00:46:54.297Z,0.00
2019-05-09T00:47:54.346Z,0.00
2019-05-09T00:48:54.275Z,0.00
2019-05-09T00:49:54.316Z,0.00
2019-05-09T00:50:54.521Z,0.00
2019-05-09T00:51:54.242Z,0.00
2019-05-09T00:52:55.067Z,0.00
2019-05-09T00:53:54.214Z,0.00
2019-05-09T00:54:54.201Z,0.00
2019-05-09T00:55:54.550Z,0.00
2019-05-09T00:56:54.196Z,0.00
2019-05-09T00:57:54.759Z,0.00
2019-05-09T00:58:55.095Z,0.00
2019-05-09T00:59:54.154Z,0.00
2019-05-09T01:00:54.140Z,0.00
2019-05-09T01:01:54.470Z,0.00
2019-05-09T01:02:54.339Z,0.00
2019-05-09T01:03:54.118Z,0.00
2019-05-09T01:04:54.100Z,0.00
2019-05-09T01:05:54.330Z,0.00
2019-05-09T01:06:54.211Z,0.00
2019-05-09T01:07:54.177Z,0.00
2019-05-09T01:08:54.128Z,0.00
2019-05-09T01:09:54.370Z,0.00
2019-05-09T01:11:08.248Z,0.00
2019-05-09T01:11:55.024Z,0.00
2019-05-09T01:12:54.344Z,0.00
2019-05-09T01:13:54.579Z,0.00
2019-05-09T01:14:53.994Z,0.00
2019-05-09T01:15:53.995Z,0.00
2019-05-09T01:16:53.970Z,0.00
2019-05-09T01:17:53.989Z,0.00
2019-05-09T01:18:54.587Z,0.00
2019-05-09T01:19:53.945Z,0.00
2019-05-09T01:20:53.930Z,0.00
2019-05-09T01:21:54.326Z,0.00
2019-05-09T01:22:54.233Z,0.00
2019-05-09T01:23:54.271Z,0.00
2019-05-09T01:24:53.894Z,0.00
2019-05-09T01:25:53.875Z,0.00
2019-05-09T01:26:54.305Z,0.00
2019-05-09T01:27:54.098Z,0.00
2019-05-09T01:28:54.174Z,0.00
2019-05-09T01:29:53.833Z,0.00
2019-05-09T01:30:53.821Z,0.00
2019-05-09T01:31:54.130Z,0.00
2019-05-09T01:32:54.041Z,0.00
2019-05-09T01:33:53.789Z,0.00
2019-05-09T01:34:53.779Z,0.00
2019-05-09T01:35:54.139Z,0.00
2019-05-09T01:36:54.102Z,0.00
2019-05-09T01:37:54.034Z,0.00
2019-05-09T01:38:54.071Z,0.00
2019-05-09T01:39:53.726Z,0.00
2019-05-09T01:40:53.721Z,0.00
2019-05-09T01:41:53.703Z,0.00
2019-05-09T01:42:53.895Z,0.00
2019-05-09T01:43:53.793Z,0.00
2019-05-09T01:44:53.669Z,0.00
2019-05-09T01:45:54.069Z,0.00
2019-05-09T01:46:54.103Z,0.00
2019-05-09T01:47:54.585Z,0.00
2019-05-09T01:48:54.023Z,0.00
2019-05-09T01:49:53.900Z,0.00
2019-05-09T01:50:53.850Z,0.00
2019-05-09T01:51:53.851Z,0.00
2019-05-09T01:52:53.606Z,0.00
2019-05-09T01:53:53.592Z,0.00
2019-05-09T01:54:54.122Z,0.00
2019-05-09T01:55:54.012Z,0.00
2019-05-09T01:56:53.840Z,0.00
2019-05-09T01:57:53.927Z,0.00
2019-05-09T01:58:54.044Z,0.00
2019-05-09T01:59:53.512Z,0.00
2019-05-09T02:00:54.054Z,0.00
2019-05-09T02:01:54.139Z,0.00
2019-05-09T02:02:54.178Z,0.00
2019-05-09T02:03:53.851Z,0.00
2019-05-09T02:04:53.472Z,0.00
2019-05-09T02:05:53.446Z,0.00
2019-05-09T02:06:53.878Z,0.00
2019-05-09T02:07:54.234Z,0.00
2019-05-09T02:08:54.541Z,0.00
2019-05-09T02:09:53.988Z,0.00
2019-05-09T02:10:54.251Z,0.00
2019-05-09T02:11:54.529Z,0.00
2019-05-09T02:12:53.872Z,0.00
2019-05-09T02:13:53.631Z,0.00
2019-05-09T02:14:54.262Z,0.00
2019-05-09T02:15:53.887Z,0.00
2019-05-09T02:16:53.799Z,0.00
2019-05-09T02:17:58.950Z,0.00
2019-05-09T02:18:54.311Z,0.00
2019-05-09T02:19:53.381Z,0.00
2019-05-09T02:20:53.365Z,0.00
2019-05-09T02:21:53.281Z,0.00
2019-05-09T02:22:54.249Z,0.00
2019-05-09T02:23:53.779Z,0.00
2019-05-09T02:24:53.556Z,0.00
2019-05-09T02:25:53.347Z,0.00
2019-05-09T02:26:53.458Z,0.00
2019-05-09T02:27:55.272Z,0.00
2019-05-09T02:28:53.937Z,0.00
2019-05-09T02:29:54.420Z,0.00
2019-05-09T02:30:55.010Z,0.00
2019-05-09T02:31:54.644Z,0.00
2019-05-09T02:32:54.661Z,0.00
2019-05-09T02:33:54.171Z,0.00
2019-05-09T02:34:54.782Z,0.00
2019-05-09T02:36:00.777Z,0.00
2019-05-09T02:36:54.121Z,0.00
2019-05-09T02:37:53.112Z,0.00
2019-05-09T02:38:53.104Z,0.00
2019-05-09T02:39:53.088Z,0.00
2019-05-09T02:40:53.092Z,0.00
2019-05-09T02:42:07.685Z,0.00
2019-05-09T02:42:54.058Z,0.00
2019-05-09T02:43:53.046Z,0.00
2019-05-09T02:44:53.032Z,0.00
2019-05-09T02:45:53.036Z,0.00
2019-05-09T02:46:53.015Z,0.00
2019-05-09T02:47:53.007Z,0.00
2019-05-09T02:48:53.000Z,0.00
2019-05-09T02:49:52.990Z,0.00
2019-05-09T02:50:52.975Z,0.00
2019-05-09T02:51:52.980Z,0.00
2019-05-09T02:52:52.954Z,0.00
2019-05-09T02:53:52.945Z,0.00
2019-05-09T02:54:52.932Z,0.00
2019-05-09T02:55:52.916Z,0.00
2019-05-09T02:56:52.923Z,0.00
2019-05-09T02:57:52.899Z,0.00
2019-05-09T02:58:52.903Z,0.00
2019-05-09T02:59:52.880Z,0.00
2019-05-09T03:00:52.869Z,0.00
2019-05-09T03:01:52.883Z,0.00
2019-05-09T03:02:52.850Z,0.00
2019-05-09T03:03:52.831Z,0.00
2019-05-09T03:04:52.820Z,0.00
2019-05-09T03:05:52.822Z,0.00
2019-05-09T03:06:52.819Z,0.00
2019-05-09T03:07:52.791Z,0.00
2019-05-09T03:08:52.808Z,0.00
2019-05-09T03:09:52.773Z,0.00
2019-05-09T03:10:52.760Z,0.00
2019-05-09T03:11:52.750Z,0.00
2019-05-09T03:12:52.766Z,0.00
2019-05-09T03:13:52.729Z,0.00
2019-05-09T03:14:52.723Z,0.00
2019-05-09T03:15:52.710Z,0.00
2019-05-09T03:16:52.704Z,0.00
2019-05-09T03:17:52.705Z,0.00
2019-05-09T03:18:52.686Z,0.00
2019-05-09T03:19:52.667Z,0.00
2019-05-09T03:20:52.655Z,0.00
2019-05-09T03:21:52.657Z,0.00
2019-05-09T03:22:52.664Z,0.00
2019-05-09T03:23:52.624Z,0.00
2019-05-09T03:24:52.607Z,0.00
2019-05-09T03:25:52.606Z,0.00
2019-05-09T03:26:52.589Z,0.00
2019-05-09T03:27:52.579Z,0.00
2019-05-09T03:28:52.589Z,0.00
2019-05-09T03:29:53.119Z,0.00
2019-05-09T03:30:52.556Z,0.00
2019-05-09T03:31:52.540Z,0.00
2019-05-09T03:32:52.523Z,0.00
2019-05-09T03:33:52.527Z,0.00
2019-05-09T03:34:52.505Z,0.00
2019-05-09T03:35:52.506Z,0.00
2019-05-09T03:36:53.108Z,0.00
2019-05-09T03:37:52.477Z,0.00
2019-05-09T03:38:52.476Z,0.00
2019-05-09T03:39:52.452Z,0.00
2019-05-09T03:40:52.445Z,0.00
2019-05-09T03:41:52.432Z,0.00
2019-05-09T03:42:52.422Z,0.00
2019-05-09T03:43:52.440Z,0.00
2019-05-09T03:44:52.407Z,0.00
2019-05-09T03:45:52.488Z,0.00
2019-05-09T03:46:52.424Z,0.00
2019-05-09T03:47:52.373Z,0.00
2019-05-09T03:48:52.363Z,0.00
2019-05-09T03:49:52.358Z,0.00
2019-05-09T03:50:52.340Z,0.00
2019-05-09T03:51:52.325Z,0.00
2019-05-09T03:52:52.315Z,0.00
2019-05-09T03:53:52.303Z,0.00
2019-05-09T03:54:52.310Z,0.00
2019-05-09T03:55:52.285Z,0.00
2019-05-09T03:56:52.268Z,0.00
2019-05-09T03:57:52.329Z,0.00
2019-05-09T03:58:52.256Z,0.00
2019-05-09T03:59:52.285Z,0.00
2019-05-09T04:00:52.229Z,0.00
2019-05-09T04:01:52.222Z,0.00
2019-05-09T04:02:52.209Z,0.00
2019-05-09T04:03:52.195Z,0.00
2019-05-09T04:04:52.202Z,0.00
2019-05-09T04:05:59.232Z,0.00
2019-05-09T04:06:53.178Z,0.00
2019-05-09T04:07:52.153Z,0.00
2019-05-09T04:08:53.928Z,0.00
2019-05-09T04:09:52.159Z,0.00
2019-05-09T04:10:52.118Z,0.00
2019-05-09T04:11:52.105Z,0.00
2019-05-09T04:12:56.262Z,0.00
2019-05-09T04:13:53.094Z,0.00
2019-05-09T04:14:52.093Z,0.00
2019-05-09T04:15:52.082Z,0.00
2019-05-09T04:16:52.059Z,0.00
2019-05-09T04:17:52.046Z,0.00
2019-05-09T04:18:52.029Z,0.00
2019-05-09T04:19:52.025Z,0.00
2019-05-09T04:20:52.027Z,0.00
2019-05-09T04:21:51.999Z,0.00
2019-05-09T04:22:52.010Z,0.00
2019-05-09T04:23:51.981Z,0.00
2019-05-09T04:24:51.964Z,5.62
2019-05-09T04:25:51.967Z,5.62
2019-05-09T04:26:51.943Z,5.62
2019-05-09T04:27:51.966Z,5.62
2019-05-09T04:28:51.920Z,5.62
2019-05-09T04:29:51.910Z,5.62
2019-05-09T04:30:51.914Z,5.62
2019-05-09T04:31:51.890Z,5.62
2019-05-09T04:32:51.879Z,5.62
2019-05-09T04:33:51.874Z,5.62
2019-05-09T04:34:51.871Z,5.62
2019-05-09T04:35:51.872Z,5.62
2019-05-09T04:36:51.846Z,5.62
2019-05-09T04:37:51.831Z,5.62
2019-05-09T04:38:51.820Z,5.62
2019-05-09T04:39:54.036Z,5.62
2019-05-09T04:40:52.855Z,5.62
2019-05-09T04:41:55.006Z,5.62
2019-05-09T04:42:52.777Z,5.62
2019-05-09T04:43:51.803Z,5.62
2019-05-09T04:44:57.738Z,5.62
2019-05-09T04:45:53.413Z,5.62
2019-05-09T04:46:54.136Z,5.62
2019-05-09T04:47:52.722Z,5.62
2019-05-09T04:48:54.148Z,5.62
2019-05-09T04:49:52.751Z,5.62
2019-05-09T04:50:51.703Z,5.62
2019-05-09T04:51:51.725Z,5.62
2019-05-09T04:52:51.713Z,5.62
2019-05-09T04:53:51.771Z,5.62
2019-05-09T04:54:51.639Z,5.62
2019-05-09T04:55:51.640Z,5.62
2019-05-09T04:56:53.812Z,5.62
2019-05-09T04:57:51.609Z,5.62
2019-05-09T04:58:51.598Z,5.62
2019-05-09T04:59:51.591Z,5.62
2019-05-09T05:00:51.575Z,5.62
2019-05-09T05:01:51.638Z,5.62
2019-05-09T05:02:51.552Z,5.62
2019-05-09T05:03:51.542Z,5.62
2019-05-09T05:04:51.531Z,5.62
2019-05-09T05:05:51.519Z,5.62
2019-05-09T05:06:51.533Z,5.62
2019-05-09T05:07:51.547Z,5.62
2019-05-09T05:08:51.516Z,5.62
2019-05-09T05:09:51.537Z,5.62
2019-05-09T05:10:51.476Z,5.62
2019-05-09T05:11:51.467Z,5.62
2019-05-09T05:12:51.492Z,5.62
2019-05-09T05:13:51.435Z,5.62
2019-05-09T05:14:51.420Z,5.62
2019-05-09T05:15:51.408Z,5.62
2019-05-09T05:16:53.693Z,11.25
2019-05-09T05:17:51.387Z,11.25
2019-05-09T05:18:51.378Z,16.88
2019-05-09T05:19:51.392Z,16.88
2019-05-09T05:20:51.353Z,16.88
2019-05-09T05:21:51.358Z,16.88
2019-05-09T05:22:51.334Z,16.88
2019-05-09T05:23:51.325Z,16.88
2019-05-09T05:24:55.055Z,16.88
2019-05-09T05:25:51.297Z,11.25
2019-05-09T05:26:51.307Z,11.25
2019-05-09T05:27:51.275Z,11.25
2019-05-09T05:28:51.267Z,11.25
2019-05-09T05:29:51.257Z,11.25
2019-05-09T05:30:51.249Z,5.62
2019-05-09T05:31:51.265Z,5.62
2019-05-09T05:32:51.234Z,11.25
2019-05-09T05:33:53.772Z,11.25
2019-05-09T05:34:51.204Z,11.25
2019-05-09T05:35:51.195Z,11.25
2019-05-09T05:36:51.183Z,11.25
2019-05-09T05:37:51.190Z,11.25
2019-05-09T05:38:51.161Z,11.25
2019-05-09T05:39:51.154Z,11.25
2019-05-09T05:40:51.142Z,11.25
2019-05-09T05:41:51.128Z,11.25
2019-05-09T05:42:51.136Z,11.25
2019-05-09T05:43:51.107Z,16.88
2019-05-09T05:44:51.095Z,16.88
2019-05-09T05:45:51.085Z,16.88
2019-05-09T05:46:51.071Z,16.88
2019-05-09T05:47:51.081Z,16.88
2019-05-09T05:48:51.052Z,16.88
2019-05-09T05:49:51.041Z,16.88
2019-05-09T05:50:51.070Z,16.88
2019-05-09T05:51:51.028Z,16.88
2019-05-09T05:52:51.025Z,16.88
2019-05-09T05:53:50.992Z,11.25
2019-05-09T05:54:50.989Z,11.25
2019-05-09T05:55:52.783Z,11.25
2019-05-09T05:56:50.969Z,11.25
2019-05-09T05:57:50.974Z,11.25
2019-05-09T05:58:50.949Z,11.25
2019-05-09T05:59:50.937Z,11.25
2019-05-09T06:00:50.923Z,11.25
2019-05-09T06:01:50.920Z,11.25
2019-05-09T06:02:50.931Z,11.25
2019-05-09T06:03:50.895Z,11.25
2019-05-09T06:04:50.875Z,11.25
2019-05-09T06:05:51.783Z,11.25
2019-05-09T06:06:50.857Z,11.25
2019-05-09T06:07:50.870Z,11.25
2019-05-09T06:08:50.839Z,11.25
2019-05-09T06:09:50.826Z,11.25
2019-05-09T06:10:50.813Z,11.25
2019-05-09T06:11:50.804Z,16.88
2019-05-09T06:12:50.792Z,16.88
2019-05-09T06:13:57.290Z,16.88
2019-05-09T06:14:51.774Z,16.88
2019-05-09T06:15:50.762Z,22.50
2019-05-09T06:16:50.757Z,22.50
2019-05-09T06:17:50.735Z,22.50
2019-05-09T06:18:50.745Z,22.50
2019-05-09T06:19:50.736Z,22.50
2019-05-09T06:20:50.709Z,22.50
2019-05-09T06:21:52.351Z,28.12
2019-05-09T06:22:50.683Z,28.12
2019-05-09T06:23:50.691Z,28.12
2019-05-09T06:24:50.671Z,28.12
2019-05-09T06:25:50.655Z,33.75
2019-05-09T06:26:50.654Z,33.75
2019-05-09T06:27:50.641Z,33.75
2019-05-09T06:28:50.650Z,28.12
2019-05-09T06:29:50.622Z,28.12
2019-05-09T06:30:50.594Z,28.12
2019-05-09T06:31:50.591Z,28.12
2019-05-09T06:32:50.577Z,28.12
2019-05-09T06:33:53.523Z,28.12
2019-05-09T06:34:50.570Z,28.12
2019-05-09T06:35:50.546Z,28.12
2019-05-09T06:36:50.535Z,22.50
2019-05-09T06:37:50.536Z,22.50
2019-05-09T06:38:50.535Z,22.50
2019-05-09T06:39:50.532Z,22.50
2019-05-09T06:40:50.494Z,22.50
2019-05-09T06:41:50.492Z,22.50
2019-05-09T06:42:50.474Z,22.50
2019-05-09T06:43:50.462Z,22.50
2019-05-09T06:44:50.466Z,16.88
2019-05-09T06:45:50.443Z,22.50
2019-05-09T06:46:50.435Z,22.50
2019-05-09T06:47:50.435Z,22.50
2019-05-09T06:48:50.444Z,22.50
2019-05-09T06:49:50.423Z,22.50
2019-05-09T06:50:50.408Z,22.50
2019-05-09T06:51:50.398Z,28.12
2019-05-09T06:52:50.444Z,28.12
2019-05-09T06:53:50.360Z,22.50
2019-05-09T06:54:50.371Z,22.50
2019-05-09T06:55:50.335Z,22.50
2019-05-09T06:56:50.332Z,22.50
2019-05-09T06:57:50.316Z,22.50
2019-05-09T06:58:50.332Z,22.50
2019-05-09T06:59:50.306Z,22.50
2019-05-09T07:00:50.296Z,22.50
2019-05-09T07:01:50.288Z,22.50
2019-05-09T07:02:50.274Z,22.50
2019-05-09T07:03:50.253Z,22.50
2019-05-09T07:04:50.266Z,28.12
2019-05-09T07:05:50.228Z,28.12
2019-05-09T07:06:50.219Z,33.75
2019-05-09T07:07:50.210Z,33.75
2019-05-09T07:08:50.206Z,33.75
2019-05-09T07:09:50.197Z,33.75
2019-05-09T07:10:50.180Z,33.75
2019-05-09T07:11:50.166Z,33.75
2019-05-09T07:12:50.155Z,33.75
2019-05-09T07:13:50.140Z,33.75
2019-05-09T07:14:50.146Z,28.12
2019-05-09T07:15:50.122Z,28.12
2019-05-09T07:16:50.115Z,28.12
2019-05-09T07:17:50.101Z,22.50
2019-05-09T07:18:50.090Z,22.50
2019-05-09T07:19:50.095Z,22.50
2019-05-09T07:20:50.072Z,22.50
2019-05-09T07:21:50.055Z,22.50
2019-05-09T07:22:50.053Z,16.88
2019-05-09T07:23:50.037Z,16.88
2019-05-09T07:24:50.039Z,16.88
2019-05-09T07:25:50.016Z,22.50
2019-05-09T07:26:50.005Z,22.50
2019-05-09T07:27:49.994Z,22.50
2019-05-09T07:28:49.981Z,22.50
2019-05-09T07:29:49.995Z,28.12
2019-05-09T07:30:49.962Z,28.12
2019-05-09T07:31:49.955Z,28.12
2019-05-09T07:32:49.944Z,33.75
2019-05-09T07:33:49.975Z,33.75
2019-05-09T07:34:49.927Z,33.75
2019-05-09T07:35:49.905Z,33.75
2019-05-09T07:36:49.897Z,33.75
2019-05-09T07:37:49.891Z,33.75
2019-05-09T07:38:49.873Z,33.75
2019-05-09T07:39:49.925Z,33.75
2019-05-09T07:40:49.857Z,39.38
2019-05-09T07:41:49.846Z,39.38
2019-05-09T07:42:49.831Z,39.38
2019-05-09T07:43:49.825Z,39.38
2019-05-09T07:44:52.446Z,39.38
2019-05-09T07:45:53.006Z,39.38
2019-05-09T07:46:49.789Z,39.38
2019-05-09T07:47:49.798Z,33.75
2019-05-09T07:48:49.769Z,33.75
2019-05-09T07:49:49.757Z,33.75
2019-05-09T07:50:49.758Z,33.75
2019-05-09T07:51:49.737Z,39.38
2019-05-09T07:52:49.746Z,39.38
2019-05-09T07:53:49.716Z,45.00
2019-05-09T07:54:49.752Z,45.00
2019-05-09T07:55:49.734Z,45.00
2019-05-09T07:56:49.685Z,45.00
2019-05-09T07:57:55.141Z,45.00
2019-05-09T07:58:50.662Z,45.00
2019-05-09T07:59:49.676Z,45.00
2019-05-09T08:00:49.662Z,45.00
2019-05-09T08:01:49.632Z,45.00
2019-05-09T08:02:49.622Z,45.00
2019-05-09T08:03:49.607Z,45.00
2019-05-09T08:04:49.599Z,39.38
2019-05-09T08:05:49.598Z,39.38
2019-05-09T08:06:49.724Z,39.38
2019-05-09T08:07:49.596Z,39.38
2019-05-09T08:08:49.560Z,39.38
2019-05-09T08:09:49.560Z,39.38
2019-05-09T08:10:49.556Z,39.38
2019-05-09T08:11:49.554Z,39.38
2019-05-09T08:12:49.514Z,39.38
2019-05-09T08:13:49.558Z,39.38
2019-05-09T08:15:06.631Z,39.38
2019-05-09T08:15:50.488Z,39.38
2019-05-09T08:16:49.463Z,39.38
2019-05-09T08:17:49.476Z,45.00
2019-05-09T08:18:49.489Z,45.00
2019-05-09T08:19:49.437Z,45.00
2019-05-09T08:20:49.554Z,45.00
2019-05-09T08:21:49.479Z,45.00
2019-05-09T08:22:57.166Z,45.00
2019-05-09T08:23:50.434Z,50.62
2019-05-09T08:24:49.433Z,45.00
2019-05-09T08:25:49.415Z,50.62
2019-05-09T08:26:49.466Z,50.62
2019-05-09T08:27:49.403Z,50.62
2019-05-09T08:28:49.402Z,50.62
2019-05-09T08:29:49.334Z,50.62
2019-05-09T08:30:49.469Z,50.62
2019-05-09T08:31:49.438Z,50.62
2019-05-09T08:32:49.384Z,50.62
2019-05-09T08:33:49.460Z,50.62
2019-05-09T08:34:49.344Z,50.62
2019-05-09T08:35:52.507Z,50.62
2019-05-09T08:36:49.303Z,50.62
2019-05-09T08:37:49.274Z,50.62
2019-05-09T08:38:49.365Z,50.62
2019-05-09T08:39:49.291Z,50.62
2019-05-09T08:40:49.248Z,50.62
2019-05-09T08:41:49.288Z,50.62
2019-05-09T08:42:49.310Z,50.62
2019-05-09T08:43:49.230Z,45.00
2019-05-09T08:44:49.194Z,45.00
2019-05-09T08:45:49.237Z,45.00
2019-05-09T08:46:49.236Z,45.00
2019-05-09T08:47:49.166Z,50.62
2019-05-09T08:48:49.150Z,50.62
2019-05-09T08:49:49.730Z,50.62
2019-05-09T08:50:49.132Z,50.62
2019-05-09T08:52:06.323Z,50.62
2019-05-09T08:52:50.112Z,45.00
2019-05-09T08:53:49.178Z,45.00
2019-05-09T08:54:49.090Z,45.00
2019-05-09T08:55:49.097Z,39.38
2019-05-09T08:56:49.205Z,39.38
2019-05-09T08:57:49.107Z,39.38
2019-05-09T08:58:49.134Z,45.00
2019-05-09T08:59:50.813Z,45.00
2019-05-09T09:00:49.262Z,45.00
2019-05-09T09:02:10.716Z,45.00
2019-05-09T09:02:50.017Z,45.00
2019-05-09T09:03:48.990Z,39.38
2019-05-09T09:04:49.142Z,39.38
2019-05-09T09:05:48.948Z,45.00
2019-05-09T09:06:48.956Z,45.00
2019-05-09T09:07:49.407Z,50.62
2019-05-09T09:08:48.969Z,50.62
2019-05-09T09:09:49.055Z,45.00
2019-05-09T09:10:49.089Z,50.62
2019-05-09T09:11:48.904Z,45.00
2019-05-09T09:12:48.878Z,45.00
2019-05-09T09:13:48.864Z,45.00
2019-05-09T09:14:48.870Z,50.62
2019-05-09T09:16:10.435Z,39.38
2019-05-09T09:16:49.851Z,33.75
2019-05-09T09:17:49.283Z,33.75
2019-05-09T09:18:48.813Z,33.75
2019-05-09T09:19:48.805Z,33.75
2019-05-09T09:20:48.801Z,39.38
2019-05-09T09:21:49.716Z,45.00
2019-05-09T09:22:48.773Z,45.00
2019-05-09T09:23:50.748Z,50.62
2019-05-09T09:24:48.756Z,50.62
2019-05-09T09:25:49.004Z,56.25
2019-05-09T09:26:48.746Z,56.25
2019-05-09T09:27:51.155Z,56.25
2019-05-09T09:28:48.704Z,56.25
2019-05-09T09:29:48.700Z,61.88
2019-05-09T09:30:48.759Z,61.88
2019-05-09T09:31:48.692Z,61.88
2019-05-09T09:32:48.680Z,61.88
2019-05-09T09:33:48.651Z,61.88
2019-05-09T09:34:48.776Z,61.88
2019-05-09T09:35:49.147Z,61.88
2019-05-09T09:36:48.777Z,61.88
2019-05-09T09:37:51.400Z,61.88
2019-05-09T09:38:48.622Z,61.88
2019-05-09T09:39:49.032Z,61.88
2019-05-09T09:40:48.608Z,61.88
2019-05-09T09:41:48.625Z,61.88
2019-05-09T09:42:49.109Z,61.88
2019-05-09T09:43:48.547Z,61.88
2019-05-09T09:44:48.553Z,61.88
2019-05-09T09:46:05.123Z,56.25
2019-05-09T09:46:49.539Z,50.62
2019-05-09T09:47:48.505Z,50.62
2019-05-09T09:48:48.506Z,50.62
2019-05-09T09:49:49.265Z,45.00
2019-05-09T09:50:51.323Z,50.62
2019-05-09T09:51:48.591Z,56.25
2019-05-09T09:52:49.259Z,56.25
2019-05-09T09:53:49.077Z,50.62
2019-05-09T09:54:48.452Z,45.00
2019-05-09T09:55:48.516Z,45.00
2019-05-09T09:56:48.482Z,45.00
2019-05-09T09:57:48.611Z,39.38
2019-05-09T09:58:48.436Z,39.38
2019-05-09T09:59:48.654Z,39.38
2019-05-09T10:00:48.538Z,39.38
2019-05-09T10:01:48.446Z,39.38
2019-05-09T10:02:48.450Z,39.38
2019-05-09T10:03:48.406Z,39.38
2019-05-09T10:04:48.398Z,33.75
2019-05-09T10:05:48.728Z,33.75
2019-05-09T10:06:52.644Z,33.75
2019-05-09T10:07:48.377Z,33.75
2019-05-09T10:08:49.083Z,33.75
2019-05-09T10:09:48.365Z,39.38
2019-05-09T10:10:48.665Z,39.38
2019-05-09T10:11:48.485Z,39.38
2019-05-09T10:12:49.354Z,45.00
2019-05-09T10:13:51.752Z,50.62
2019-05-09T10:14:48.231Z,50.62
2019-05-09T10:15:48.273Z,50.62
2019-05-09T10:16:48.201Z,56.25
2019-05-09T10:17:48.218Z,50.62
2019-05-09T10:18:48.186Z,50.62
2019-05-09T10:19:48.331Z,50.62
2019-05-09T10:20:48.578Z,56.25
2019-05-09T10:21:48.663Z,56.25
2019-05-09T10:22:58.761Z,56.25
2019-05-09T10:23:49.146Z,56.25
2019-05-09T10:24:48.115Z,56.25
2019-05-09T10:25:48.100Z,61.88
2019-05-09T10:26:48.103Z,61.88
2019-05-09T10:27:48.095Z,61.88
2019-05-09T10:28:48.664Z,67.50
2019-05-09T10:29:48.116Z,67.50
2019-05-09T10:30:48.560Z,67.50
2019-05-09T10:31:48.789Z,67.50
2019-05-09T10:32:48.035Z,61.88
2019-05-09T10:33:48.364Z,56.25
2019-05-09T10:34:48.950Z,50.62
2019-05-09T10:35:48.057Z,45.00
2019-05-09T10:36:48.062Z,39.38
2019-05-09T10:37:48.591Z,33.75
2019-05-09T10:38:48.160Z,33.75
2019-05-09T10:39:49.099Z,28.12
2019-05-09T10:40:48.979Z,28.12
2019-05-09T10:41:48.300Z,28.12
2019-05-09T10:42:48.458Z,22.50
2019-05-09T10:43:48.683Z,22.50
2019-05-09T10:44:48.875Z,22.50
2019-05-09T10:45:48.437Z,16.88
2019-05-09T10:46:56.402Z,16.88
2019-05-09T10:47:48.954Z,16.88
2019-05-09T10:48:48.036Z,22.50
2019-05-09T10:49:48.845Z,28.12
2019-05-09T10:50:53.957Z,33.75
2019-05-09T10:51:48.834Z,33.75
2019-05-09T10:52:48.260Z,33.75
2019-05-09T10:53:48.298Z,33.75
2019-05-09T10:54:47.806Z,39.38
2019-05-09T10:55:48.149Z,39.38
2019-05-09T10:56:48.751Z,39.38
2019-05-09T10:57:52.124Z,33.75
2019-05-09T10:58:48.801Z,28.12
2019-05-09T10:59:48.330Z,22.50
2019-05-09T11:00:48.290Z,22.50
2019-05-09T11:01:49.667Z,22.50
2019-05-09T11:02:48.394Z,22.50
2019-05-09T11:03:48.405Z,22.50
2019-05-09T11:04:49.159Z,22.50
2019-05-09T11:05:47.687Z,22.50
2019-05-09T11:06:47.665Z,28.12
2019-05-09T11:07:49.575Z,28.12
2019-05-09T11:08:48.024Z,28.12
2019-05-09T11:09:48.156Z,33.75
2019-05-09T11:10:47.630Z,39.38
2019-05-09T11:11:48.443Z,45.00
2019-05-09T11:12:47.921Z,50.62
2019-05-09T11:13:48.470Z,56.25
2019-05-09T11:14:48.402Z,61.88
2019-05-09T11:15:48.071Z,67.50
2019-05-09T11:16:54.327Z,67.50
2019-05-09T11:17:48.594Z,61.88
2019-05-09T11:18:48.469Z,56.25
2019-05-09T11:19:48.208Z,56.25
2019-05-09T11:20:47.596Z,56.25
2019-05-09T11:21:47.911Z,56.25
2019-05-09T11:22:47.667Z,61.88
2019-05-09T11:23:48.862Z,56.25
2019-05-09T11:24:50.981Z,50.62
2019-05-09T11:25:47.469Z,50.62
2019-05-09T11:26:48.100Z,50.62
2019-05-09T11:27:51.242Z,50.62
2019-05-09T11:28:48.445Z,50.62
2019-05-09T11:29:49.925Z,56.25
2019-05-09T11:30:47.714Z,56.25
2019-05-09T11:31:47.812Z,61.88
2019-05-09T11:32:48.090Z,67.50
2019-05-09T11:33:48.424Z,67.50
2019-05-09T11:34:48.605Z,67.50
2019-05-09T11:35:48.063Z,67.50
2019-05-09T11:36:49.754Z,67.50
2019-05-09T11:37:48.035Z,61.88
2019-05-09T11:38:49.444Z,61.88
2019-05-09T11:39:48.195Z,61.88
2019-05-09T11:40:48.345Z,56.25
2019-05-09T11:41:48.795Z,56.25
2019-05-09T11:42:48.306Z,56.25
2019-05-09T11:43:48.592Z,56.25
2019-05-09T11:44:47.420Z,56.25
2019-05-09T11:45:47.909Z,56.25
2019-05-09T11:46:47.805Z,50.62
2019-05-09T11:47:47.311Z,56.25
2019-05-09T11:48:47.286Z,61.88
2019-05-09T11:49:48.108Z,61.88
2019-05-09T11:50:47.795Z,67.50
2019-05-09T11:51:48.255Z,61.88
2019-05-09T11:52:49.052Z,50.62
2019-05-09T11:53:48.684Z,50.62
2019-05-09T11:54:48.198Z,45.00
2019-05-09T11:55:48.332Z,39.38
2019-05-09T11:56:48.211Z,33.75
2019-05-09T11:57:48.496Z,28.12
2019-05-09T11:58:48.045Z,33.75
2019-05-09T11:59:47.995Z,39.38
2019-05-09T12:00:48.218Z,45.00
2019-05-09T12:01:48.243Z,50.62
2019-05-09T12:02:47.088Z,50.62
2019-05-09T12:03:48.876Z,50.62
2019-05-09T12:04:48.721Z,56.25
2019-05-09T12:05:47.714Z,56.25
2019-05-09T12:06:49.241Z,56.25
2019-05-09T12:07:47.036Z,61.88
2019-05-09T12:08:48.283Z,61.88
2019-05-09T12:09:48.895Z,61.88
2019-05-09T12:10:47.051Z,56.25
2019-05-09T12:11:48.369Z,45.00
2019-05-09T12:12:47.823Z,33.75
2019-05-09T12:13:48.622Z,28.12
2019-05-09T12:14:48.385Z,28.12
2019-05-09T12:15:48.914Z,22.50
2019-05-09T12:16:48.008Z,22.50
2019-05-09T12:17:57.168Z,16.88
2019-05-09T12:18:48.841Z,16.88
2019-05-09T12:19:48.894Z,16.88
2019-05-09T12:20:48.404Z,16.88
2019-05-09T12:21:48.476Z,22.50
2019-05-09T12:22:48.451Z,28.12
2019-05-09T12:23:48.783Z,39.38
2019-05-09T12:24:48.127Z,61.88
2019-05-09T12:25:46.853Z,67.50
2019-05-09T12:26:48.221Z,67.50
2019-05-09T12:27:48.700Z,67.50
2019-05-09T12:28:48.356Z,61.88
2019-05-09T12:29:48.339Z,56.25
2019-05-09T12:30:48.975Z,50.62
2019-05-09T12:31:48.509Z,45.00
2019-05-09T12:32:46.785Z,39.38
2019-05-09T12:33:48.390Z,33.75
2019-05-09T12:34:47.961Z,33.75
2019-05-09T12:35:47.767Z,33.75
2019-05-09T12:36:49.462Z,33.75
2019-05-09T12:37:48.396Z,39.38
2019-05-09T12:38:49.894Z,39.38
2019-05-09T12:39:48.082Z,33.75
2019-05-09T12:40:48.183Z,39.38
2019-05-09T12:41:48.442Z,39.38
2019-05-09T12:42:49.675Z,39.38
2019-05-09T12:43:46.742Z,33.75
2019-05-09T12:44:49.330Z,28.12
2019-05-09T12:45:47.842Z,28.12
2019-05-09T12:46:48.759Z,28.12
2019-05-09T12:47:46.697Z,28.12
2019-05-09T12:48:48.101Z,33.75
2019-05-09T12:49:48.769Z,39.38
2019-05-09T12:50:48.792Z,45.00
2019-05-09T12:51:46.641Z,50.62
2019-05-09T12:52:48.793Z,61.88
2019-05-09T12:53:48.504Z,67.50
2019-05-09T12:54:48.313Z,73.12
2019-05-09T12:55:47.563Z,84.38
2019-05-09T12:56:48.525Z,90.00
2019-05-09T12:57:48.846Z,90.00
2019-05-09T12:58:47.744Z,90.00
2019-05-09T12:59:52.500Z,90.00
2019-05-09T13:00:50.185Z,84.38
2019-05-09T13:01:48.904Z,78.75
2019-05-09T13:02:46.475Z,78.75